Time;durP1;ratioP1;P1;durP2;ratioP2;P2;SDS_P1;SDS_P2;PMS_P1;PMS_P2;Temp;Humidity;BMP_temperature;BMP_pressure;BME280_temperature;BME280_humidity;BME280_pressure;Samples;Min_cycle;Max_cycle;Signal;HPM_P1;HPM_P2
2022/10/14 00:01:41;;;;;;;;;11.75;10.75;;;;;16.93;97.72;101119.72;5077100;28;46028;-71
2022/10/14 00:04:06;;;;;;;;;10.25;10.00;;;;;16.98;97.92;101134.53;5075709;28;45625;-70
2022/10/14 00:06:32;;;;;;;;;10.25;10.25;;;;;16.97;97.91;101132.81;5077241;27;45710;-71
2022/10/14 00:09:00;;;;;;;;;8.00;8.00;;;;;16.76;97.53;101092.25;5076941;28;45268;-71
2022/10/14 00:11:29;;;;;;;;;10.50;9.50;;;;;17.00;97.23;101126.31;5076704;28;45419;-71
2022/10/14 00:14:01;;;;;;;;;11.25;10.00;;;;;17.07;97.21;101123.97;5076580;28;45455;-71
2022/10/14 00:16:33;;;;;;;;;9.50;9.50;;;;;16.88;97.41;101095.78;5076850;28;45384;-71
2022/10/14 00:19:00;;;;;;;;;8.00;8.00;;;;;17.09;97.19;101122.88;5077037;28;45526;-71
2022/10/14 00:21:26;;;;;;;;;8.25;8.25;;;;;17.11;97.26;101125.44;5076573;27;46201;-71
2022/10/14 00:23:52;;;;;;;;;7.00;7.00;;;;;17.09;97.30;101124.72;5076510;28;45574;-71
2022/10/14 00:26:21;;;;;;;;;6.25;5.00;;;;;17.08;97.81;101121.16;5076912;28;45396;-71
2022/10/14 00:28:47;;;;;;;;;6.75;6.75;;;;;17.11;97.87;101115.53;5077118;28;45412;-70
2022/10/14 00:31:13;;;;;;;;;8.00;8.00;;;;;17.10;97.76;101105.72;5076342;28;46317;-70
2022/10/14 00:33:38;;;;;;;;;11.00;11.00;;;;;17.12;98.05;101106.44;5076507;28;45543;-70
2022/10/14 00:36:05;;;;;;;;;9.50;8.00;;;;;17.09;97.86;101095.94;5076744;28;45371;-70
2022/10/14 00:38:31;;;;;;;;;8.00;8.00;;;;;17.14;97.84;101095.53;5076749;28;45266;-70
2022/10/14 00:40:57;;;;;;;;;5.75;5.75;;;;;17.14;97.68;101100.94;5074587;28;45570;-70
2022/10/14 00:43:25;;;;;;;;;6.00;5.00;;;;;17.06;97.96;101076.44;5075524;28;45330;-70
2022/10/14 00:45:50;;;;;;;;;7.00;5.25;;;;;17.11;97.64;101093.09;5076450;28;45472;-70
2022/10/14 00:48:18;;;;;;;;;7.00;7.00;;;;;17.10;98.01;101094.06;5092119;27;45408;-70
2022/10/14 00:50:46;;;;;;;;;7.75;6.00;;;;;17.12;98.24;101092.13;5076398;28;45726;-70
2022/10/14 00:53:13;;;;;;;;;6.00;6.00;;;;;17.13;98.07;101089.31;5075295;28;45444;-70
2022/10/14 00:55:41;;;;;;;;;6.50;6.50;;;;;17.12;98.03;101090.28;5075756;28;45451;-70
2022/10/14 00:58:07;;;;;;;;;7.00;6.75;;;;;17.13;97.71;101083.91;5075894;28;45534;-70
2022/10/14 01:00:33;;;;;;;;;8.00;7.00;;;;;17.11;97.65;101075.09;5076143;28;47335;-70
2022/10/14 01:02:58;;;;;;;;;5.00;5.00;;;;;17.08;97.65;101080.72;5074706;28;45265;-70
2022/10/14 01:05:31;;;;;;;;;5.50;5.50;;;;;17.04;98.10;101079.25;5075875;28;45396;-70
2022/10/14 01:08:08;;;;;;;;;6.50;5.75;;;;;17.07;98.07;101079.03;5076300;28;45375;-70
2022/10/14 01:10:53;;;;;;;;;5.00;5.00;;;;;17.08;98.05;101074.50;5075598;28;45278;-70
2022/10/14 01:13:32;;;;;;;;;4.75;3.75;;;;;17.06;97.84;101066.53;5075561;27;45417;-70
2022/10/14 01:16:08;;;;;;;;;3.25;3.25;;;;;16.97;97.85;101048.41;5075803;27;45423;-70
2022/10/14 01:18:48;;;;;;;;;3.25;3.25;;;;;17.04;97.70;101068.47;5075755;27;45491;-71
2022/10/14 01:21:17;;;;;;;;;3.00;2.67;;;;;17.02;97.71;101062.38;5073828;28;47718;-71
2022/10/14 01:23:48;;;;;;;;;2.00;2.00;;;;;17.02;97.73;101056.13;5075146;28;45391;-71
2022/10/14 01:26:41;;;;;;;;;2.00;2.00;;;;;16.99;97.64;101054.53;5075750;28;45479;-71
2022/10/14 01:29:40;;;;;;;;;2.00;2.00;;;;;16.96;97.69;101050.28;5076059;28;45305;-70
2022/10/14 01:32:14;;;;;;;;;2.00;2.00;;;;;16.98;97.92;101055.53;5075436;28;46261;-70
2022/10/14 01:34:51;;;;;;;;;2.67;1.00;;;;;16.96;97.96;101055.66;5075186;27;45315;-71
2022/10/14 01:37:20;;;;;;;;;2.33;1.33;;;;;16.94;98.31;101051.38;5075795;28;45456;-71
2022/10/14 01:39:56;;;;;;;;;0.67;0.00;;;;;16.93;98.76;101044.25;5075439;28;45451;-71
2022/10/14 01:42:35;;;;;;;;;3.33;2.00;;;;;16.91;98.48;101044.41;5075554;28;45340;-71
2022/10/14 01:45:08;;;;;;;;;2.00;2.00;;;;;16.88;98.96;101041.06;5075097;28;45339;-71
2022/10/14 01:47:35;;;;;;;;;2.00;2.00;;;;;16.89;98.69;101032.00;5075379;28;45429;-72
2022/10/14 01:50:08;;;;;;;;;2.00;2.00;;;;;16.91;99.00;101051.59;5075704;28;45300;-71
2022/10/14 01:52:40;;;;;;;;;2.00;1.00;;;;;16.90;98.98;101045.38;5074873;28;46016;-71
2022/10/14 01:55:10;;;;;;;;;2.00;2.00;;;;;16.90;98.48;101048.06;5073744;28;45346;-71
2022/10/14 01:57:39;;;;;;;;;2.00;2.00;;;;;16.64;98.78;101007.91;5074623;27;45515;-71
2022/10/14 02:00:05;;;;;;;;;2.00;2.00;;;;;16.88;99.03;101041.91;5063259;28;45456;-71
2022/10/14 02:02:35;;;;;;;;;2.00;2.00;;;;;16.89;99.41;101040.94;5053346;28;45534;-70
2022/10/14 02:05:05;;;;;;;;;3.67;3.67;;;;;16.86;99.42;101033.09;5053528;28;45501;-70
2022/10/14 02:07:38;;;;;;;;;1.33;1.33;;;;;16.59;99.71;100987.72;5054520;28;45378;-70
2022/10/14 02:10:20;;;;;;;;;2.00;2.00;;;;;16.82;99.84;101029.78;5060994;28;45478;-70
2022/10/14 02:13:08;;;;;;;;;3.00;3.00;;;;;16.82;100.00;101016.31;5075066;27;46198;-70
2022/10/14 02:15:49;;;;;;;;;2.00;2.00;;;;;16.87;99.77;101023.16;5051865;28;45466;-70
2022/10/14 02:18:34;;;;;;;;;2.00;2.00;;;;;16.87;100.00;101021.34;5052619;28;45353;-70
2022/10/14 02:21:09;;;;;;;;;2.33;2.33;;;;;16.84;100.00;101023.44;5041413;28;45592;-70
2022/10/14 02:23:40;;;;;;;;;2.00;2.00;;;;;16.86;100.00;101021.44;5051562;28;45378;-71
2022/10/14 02:26:07;;;;;;;;;1.67;1.67;;;;;16.90;100.00;101026.50;5052276;28;45512;-71
2022/10/14 02:28:33;;;;;;;;;1.33;1.33;;;;;16.84;100.00;101026.97;5052075;28;45410;-70
2022/10/14 02:31:04;;;;;;;;;2.67;1.67;;;;;16.80;100.00;101031.75;5052015;28;45326;-71
2022/10/14 02:33:38;;;;;;;;;3.00;3.00;;;;;16.79;100.00;101016.56;5034701;28;46775;-71
2022/10/14 02:36:07;;;;;;;;;2.50;2.50;;;;;16.34;100.00;100943.91;5051863;28;45475;-70
2022/10/14 02:38:33;;;;;;;;;3.00;2.67;;;;;16.78;100.00;101014.84;5051962;28;45431;-70
2022/10/14 02:41:03;;;;;;;;;3.67;2.67;;;;;16.75;100.00;101015.13;5052146;28;45502;-70
2022/10/14 02:43:29;;;;;;;;;2.00;2.00;;;;;16.75;100.00;101016.94;5052564;28;45375;-70
2022/10/14 02:46:00;;;;;;;;;2.00;2.00;;;;;16.63;100.00;100987.34;5052717;28;45405;-70
2022/10/14 02:48:26;;;;;;;;;1.67;1.67;;;;;16.37;100.00;100935.59;5052234;28;45496;-71
2022/10/14 02:50:51;;;;;;;;;3.00;3.00;;;;;16.67;100.00;100990.63;5052090;28;45386;-70
2022/10/14 02:53:16;;;;;;;;;2.00;2.00;;;;;16.77;100.00;101002.34;5068980;28;45375;-70
2022/10/14 02:55:42;;;;;;;;;2.00;2.00;;;;;16.79;100.00;101002.25;5074556;27;45378;-70
2022/10/14 02:58:08;;;;;;;;;6.25;4.50;;;;;16.79;100.00;101015.72;5075331;27;45303;-71
2022/10/14 03:00:33;;;;;;;;;1.67;1.67;;;;;16.73;100.00;101008.13;5094903;27;45353;-70
2022/10/14 03:02:58;;;;;;;;;2.25;2.25;;;;;16.65;100.00;101006.94;5094823;27;45433;-70
2022/10/14 03:05:24;;;;;;;;;3.25;1.50;;;;;16.65;100.00;101008.75;5094828;27;45571;-70
2022/10/14 03:07:49;;;;;;;;;3.00;2.33;;;;;16.65;100.00;101016.81;5097140;27;45678;-70
2022/10/14 03:10:14;;;;;;;;;2.33;2.33;;;;;16.57;100.00;101009.34;5090529;27;45299;-71
2022/10/14 03:12:40;;;;;;;;;2.00;2.00;;;;;16.59;100.00;101002.03;5077581;28;46126;-70
2022/10/14 03:15:06;;;;;;;;;3.00;3.00;;;;;16.55;100.00;100995.19;5077804;28;45548;-69
2022/10/14 03:17:31;;;;;;;;;1.67;1.67;;;;;16.62;100.00;101007.16;5077878;28;45284;-70
2022/10/14 03:19:58;;;;;;;;;2.00;2.00;;;;;16.40;100.00;100966.81;5077621;28;45354;-70
2022/10/14 03:22:23;;;;;;;;;2.67;2.33;;;;;16.60;100.00;101009.13;5059494;28;48569;-70
2022/10/14 03:24:49;;;;;;;;;4.00;3.00;;;;;16.59;100.00;100999.34;5077284;28;45438;-70
2022/10/14 03:27:14;;;;;;;;;3.33;3.33;;;;;16.60;100.00;101005.56;5077701;28;45321;-70
2022/10/14 03:29:40;;;;;;;;;3.00;3.00;;;;;16.60;100.00;101008.25;5077710;28;45362;-70
2022/10/14 03:32:05;;;;;;;;;1.67;1.67;;;;;16.62;100.00;101006.31;5059146;28;45614;-70
2022/10/14 03:34:30;;;;;;;;;2.00;2.00;;;;;16.44;100.00;100973.66;5077309;28;45477;-70
2022/10/14 03:36:56;;;;;;;;;3.00;2.00;;;;;16.62;100.00;100996.38;5077613;28;45309;-70
2022/10/14 03:39:21;;;;;;;;;2.00;2.00;;;;;16.49;100.00;100976.81;5077236;28;45436;-70
2022/10/14 03:41:47;;;;;;;;;3.67;2.00;;;;;16.62;100.00;100987.47;5077232;28;45456;-70
2022/10/14 03:44:12;;;;;;;;;2.00;2.00;;;;;16.60;100.00;100984.03;5077272;28;45382;-70
2022/10/14 03:46:38;;;;;;;;;1.00;1.00;;;;;16.63;100.00;100986.50;5077192;28;45453;-70
2022/10/14 03:49:03;;;;;;;;;2.00;2.00;;;;;16.58;100.00;100981.47;5076944;28;45367;-70
2022/10/14 03:51:28;;;;;;;;;2.33;1.67;;;;;16.54;100.00;100968.38;5076831;28;45430;-70
2022/10/14 03:53:54;;;;;;;;;1.50;1.50;;;;;16.62;100.00;100988.31;5077155;28;45369;-70
2022/10/14 03:56:19;;;;;;;;;0.67;0.67;;;;;16.61;100.00;100986.63;5076351;28;45463;-71
2022/10/14 03:58:45;;;;;;;;;1.00;1.00;;;;;16.59;100.00;100991.25;5077030;28;45346;-71
2022/10/14 04:01:10;;;;;;;;;2.00;2.00;;;;;16.56;100.00;100990.63;5077094;28;45967;-71
2022/10/14 04:03:35;;;;;;;;;1.00;1.00;;;;;16.49;100.00;100987.59;5076159;27;45540;-71
2022/10/14 04:06:00;;;;;;;;;2.00;2.00;;;;;16.44;100.00;100977.19;5077258;28;45390;-71
2022/10/14 04:08:26;;;;;;;;;3.00;2.00;;;;;16.54;100.00;100985.38;5076881;27;45496;-71
2022/10/14 04:10:55;;;;;;;;;1.00;1.00;;;;;16.57;100.00;100995.06;5075184;28;46477;-70
2022/10/14 04:13:20;;;;;;;;;2.00;2.00;;;;;16.55;100.00;100989.78;5076164;28;45436;-70
2022/10/14 04:15:46;;;;;;;;;2.00;2.00;;;;;16.57;100.00;100986.97;5075540;28;45314;-70
2022/10/14 04:18:11;;;;;;;;;1.00;1.00;;;;;16.59;100.00;100993.09;5075584;27;45397;-70
2022/10/14 04:20:37;;;;;;;;;1.00;1.00;;;;;16.51;100.00;100980.25;5076785;28;45383;-71
2022/10/14 04:23:03;;;;;;;;;2.00;2.00;;;;;16.55;100.00;100988.94;5076502;28;45561;-71
2022/10/14 04:25:28;;;;;;;;;1.00;1.00;;;;;16.57;100.00;100987.81;5077231;27;45389;-71
2022/10/14 04:27:54;;;;;;;;;1.67;1.67;;;;;16.55;100.00;100975.47;5076841;27;45503;-70
2022/10/14 04:30:19;;;;;;;;;2.00;2.00;;;;;16.56;100.00;100980.75;5058335;27;47445;-70
2022/10/14 04:32:45;;;;;;;;;1.00;1.00;;;;;16.58;99.97;100980.59;5054630;28;45530;-71
2022/10/14 04:35:11;;;;;;;;;1.00;1.00;;;;;16.48;99.83;100984.03;5056263;28;45382;-70
2022/10/14 04:37:36;;;;;;;;;1.67;1.67;;;;;16.61;99.91;100988.44;5056130;28;45233;-71
2022/10/14 04:40:03;;;;;;;;;1.67;1.00;;;;;16.61;99.82;100986.63;5056088;28;47282;-70
2022/10/14 04:42:29;;;;;;;;;1.00;1.00;;;;;16.67;99.70;100990.63;5071680;28;45631;-71
2022/10/14 04:44:54;;;;;;;;;2.33;2.33;;;;;16.62;99.96;100974.84;5074524;28;45452;-69
2022/10/14 04:47:19;;;;;;;;;2.67;2.67;;;;;16.54;100.00;100973.75;5075699;28;45512;-70
2022/10/14 04:49:45;;;;;;;;;2.00;1.00;;;;;16.56;100.00;100983.44;5076361;28;45390;-70
2022/10/14 04:52:10;;;;;;;;;1.00;1.00;;;;;16.47;100.00;100974.25;5076209;28;45339;-71
2022/10/14 04:54:35;;;;;;;;;2.33;2.33;;;;;16.50;100.00;100967.75;5076181;27;45421;-70
2022/10/14 04:57:01;;;;;;;;;1.67;1.67;;;;;16.16;100.00;100924.72;5076617;28;45252;-71
2022/10/14 04:59:26;;;;;;;;;2.00;2.00;;;;;16.44;100.00;100979.88;5075973;27;47166;-71
2022/10/14 05:01:52;;;;;;;;;2.00;2.00;;;;;16.46;100.00;100983.28;5075545;27;45407;-71
2022/10/14 05:04:17;;;;;;;;;4.00;3.00;;;;;16.48;100.00;100972.44;5076523;27;45392;-72
2022/10/14 05:06:42;;;;;;;;;2.00;2.00;;;;;16.52;100.00;100967.63;5075891;28;45435;-71
2022/10/14 05:09:08;;;;;;;;;4.00;2.33;;;;;16.42;99.72;100962.97;5076097;28;45590;-71
2022/10/14 05:11:34;;;;;;;;;1.00;1.00;;;;;16.51;99.72;100964.09;5075852;28;45394;-71
2022/10/14 05:13:59;;;;;;;;;2.67;2.67;;;;;16.24;99.44;100913.34;5076274;28;45379;-71
2022/10/14 05:16:25;;;;;;;;;2.75;2.75;;;;;16.52;99.30;100965.81;5075994;27;45536;-71
2022/10/14 05:18:51;;;;;;;;;2.00;2.00;;;;;16.46;99.58;100956.38;5075856;28;45384;-71
2022/10/14 05:21:16;;;;;;;;;3.00;3.00;;;;;16.51;99.74;100965.94;5075512;27;45434;-71
2022/10/14 05:23:42;;;;;;;;;2.33;2.33;;;;;16.53;99.35;100961.28;5075491;28;45476;-71
2022/10/14 05:26:09;;;;;;;;;2.00;2.00;;;;;16.50;99.09;100956.16;5076078;28;45352;-71
2022/10/14 05:28:35;;;;;;;;;0.67;0.67;;;;;16.52;99.07;100964.94;5075652;28;45376;-71
2022/10/14 05:31:00;;;;;;;;;2.67;2.33;;;;;16.52;98.90;100960.44;5074958;28;45470;-71
2022/10/14 05:33:25;;;;;;;;;2.00;2.00;;;;;16.47;99.62;100959.94;5075423;28;45554;-71
2022/10/14 05:35:51;;;;;;;;;2.00;2.00;;;;;16.40;100.00;100954.19;5074166;28;45338;-70
2022/10/14 05:38:16;;;;;;;;;2.67;1.67;;;;;16.38;100.00;100950.75;5073941;28;46285;-68
2022/10/14 05:40:42;;;;;;;;;2.00;2.00;;;;;16.35;100.00;100948.31;5071737;28;45436;-68
2022/10/14 05:43:07;;;;;;;;;1.00;1.00;;;;;16.34;100.00;100951.13;5074433;28;45459;-69
2022/10/14 05:45:33;;;;;;;;;1.00;1.00;;;;;15.97;100.00;100901.13;5074706;27;45388;-68
2022/10/14 05:47:58;;;;;;;;;2.33;2.33;;;;;16.25;100.00;100952.72;5090306;27;49798;-69
2022/10/14 05:50:23;;;;;;;;;1.00;1.00;;;;;16.02;100.00;100900.75;5074612;28;46464;-69
2022/10/14 05:52:49;;;;;;;;;3.00;3.00;;;;;16.33;100.00;100954.81;5090582;27;45374;-68
2022/10/14 05:55:14;;;;;;;;;3.33;3.33;;;;;16.34;100.00;100949.28;5075073;28;45506;-69
2022/10/14 05:57:42;;;;;;;;;3.00;3.00;;;;;16.33;100.00;100953.00;5075097;28;46352;-68
2022/10/14 06:00:08;;;;;;;;;4.33;4.33;;;;;16.26;100.00;100938.28;5074520;28;45317;-69
2022/10/14 06:02:34;;;;;;;;;3.00;3.00;;;;;16.27;100.00;100938.16;5074874;28;45698;-69
2022/10/14 06:04:59;;;;;;;;;2.00;2.00;;;;;16.35;100.00;100963.63;5073037;28;45581;-68
2022/10/14 06:07:25;;;;;;;;;5.75;5.00;;;;;16.31;100.00;100949.53;5074316;28;46002;-70
2022/10/14 06:09:50;;;;;;;;;4.75;4.75;;;;;16.26;100.00;100941.84;5074457;27;45798;-70
2022/10/14 06:12:15;;;;;;;;;4.00;4.00;;;;;16.02;100.00;100888.16;5074949;28;45377;-69
2022/10/14 06:14:41;;;;;;;;;4.75;4.00;;;;;16.39;100.00;100960.56;5074485;28;45572;-68
2022/10/14 06:17:06;;;;;;;;;5.00;2.33;;;;;16.42;100.00;100959.44;5074189;28;45510;-68
2022/10/14 06:19:32;;;;;;;;;1.00;1.00;;;;;16.44;99.54;100963.72;5074687;27;45532;-68
2022/10/14 06:21:58;;;;;;;;;3.33;3.33;;;;;15.92;99.52;100879.09;5074705;28;45355;-68
2022/10/14 06:24:24;;;;;;;;;2.67;2.67;;;;;16.39;99.64;100965.94;5074065;28;45543;-68
2022/10/14 06:26:49;;;;;;;;;5.00;4.00;;;;;16.26;99.40;100940.97;5072761;28;46462;-69
2022/10/14 06:29:15;;;;;;;;;4.00;4.00;;;;;16.35;99.23;100963.63;5074287;28;45392;-71
2022/10/14 06:31:41;;;;;;;;;3.67;3.67;;;;;16.37;99.11;100967.03;5073351;28;45410;-66
2022/10/14 06:34:07;;;;;;;;;4.00;3.25;;;;;16.48;98.62;100962.50;5069471;28;45453;-68
2022/10/14 06:36:33;;;;;;;;;4.00;3.00;;;;;16.50;98.34;100958.84;5073095;28;45684;-71
2022/10/14 06:38:58;;;;;;;;;3.67;3.67;;;;;16.48;98.60;100967.88;5074890;27;45334;-70
2022/10/14 06:41:24;;;;;;;;;6.25;5.25;;;;;16.47;98.72;100968.00;5075647;27;45511;-71
2022/10/14 06:43:49;;;;;;;;;3.25;3.25;;;;;16.44;98.63;100958.34;5078157;27;45375;-71
2022/10/14 06:46:15;;;;;;;;;4.50;4.50;;;;;16.50;98.48;100966.91;5077932;27;46064;-71
2022/10/14 06:48:40;;;;;;;;;3.75;3.75;;;;;16.50;98.38;100967.75;5077979;27;45515;-71
2022/10/14 06:51:05;;;;;;;;;3.33;3.33;;;;;16.51;98.08;100976.72;5077436;28;45839;-71
2022/10/14 06:53:31;;;;;;;;;4.00;4.00;;;;;16.54;98.27;100976.47;5078261;27;45457;-71
2022/10/14 06:56:01;;;;;;;;;3.75;3.75;;;;;16.45;97.77;100951.13;5077851;27;46180;-71
2022/10/14 06:58:27;;;;;;;;;4.25;4.25;;;;;16.46;98.03;100960.91;5077776;27;45481;-71
2022/10/14 07:00:53;;;;;;;;;4.00;4.00;;;;;16.50;97.73;100967.75;5078151;27;45368;-71
2022/10/14 07:03:18;;;;;;;;;4.00;3.00;;;;;16.33;97.66;100942.22;5076929;27;45705;-71
2022/10/14 07:05:43;;;;;;;;;3.00;3.00;;;;;16.55;97.83;100986.25;5076544;28;47837;-71
2022/10/14 07:08:10;;;;;;;;;3.00;3.00;;;;;16.36;96.64;100952.72;5059121;28;45417;-71
2022/10/14 07:10:36;;;;;;;;;5.00;3.00;;;;;16.59;96.36;100987.72;5077451;27;45516;-71
2022/10/14 07:13:01;;;;;;;;;5.33;4.33;;;;;16.24;96.08;100916.03;5075641;28;45342;-71
2022/10/14 07:15:26;;;;;;;;;2.67;2.67;;;;;16.59;95.83;100977.78;5077385;27;46434;-71
2022/10/14 07:17:52;;;;;;;;;4.67;4.67;;;;;16.21;95.00;100916.25;5076993;27;47498;-71
2022/10/14 07:20:17;;;;;;;;;4.50;4.00;;;;;16.18;95.44;100920.06;5077602;27;45372;-71
2022/10/14 07:22:42;;;;;;;;;4.50;4.50;;;;;16.58;95.28;100980.59;5076387;28;45344;-71
2022/10/14 07:25:08;;;;;;;;;3.75;3.00;;;;;16.68;94.84;101003.13;5077361;27;46069;-71
2022/10/14 07:27:33;;;;;;;;;3.33;3.33;;;;;16.20;94.16;100922.66;5077645;27;45685;-71
2022/10/14 07:30:00;;;;;;;;;5.00;3.00;;;;;16.67;95.09;101001.41;5077721;28;45412;-71
2022/10/14 07:32:26;;;;;;;;;3.00;3.00;;;;;16.50;94.07;100983.06;5077290;27;45536;-71
2022/10/14 07:34:51;;;;;;;;;1.00;1.00;;;;;16.68;93.58;101003.13;5077606;27;46670;-71
2022/10/14 07:37:16;;;;;;;;;2.00;2.00;;;;;16.31;92.84;100938.78;5076238;28;45467;-70
2022/10/14 07:39:42;;;;;;;;;2.33;2.00;;;;;16.77;92.81;101009.59;5076089;28;45427;-71
2022/10/14 07:42:07;;;;;;;;;2.00;1.00;;;;;16.77;91.49;100999.66;5077406;27;45216;-71
2022/10/14 07:44:32;;;;;;;;;3.33;0.33;;;;;16.79;90.75;101013.88;5077141;27;45433;-71
2022/10/14 07:46:59;;;;;;;;;2.00;2.00;;;;;16.77;91.30;101015.81;5077232;27;45468;-71
2022/10/14 07:49:25;;;;;;;;;3.00;2.00;;;;;16.62;90.81;100992.84;5077304;27;45332;-72
2022/10/14 07:51:50;;;;;;;;;1.33;1.33;;;;;16.75;90.74;101025.00;5075748;27;45580;-71
2022/10/14 07:54:19;;;;;;;;;2.33;2.33;;;;;16.74;91.05;101021.47;5077191;27;47084;-71
2022/10/14 07:56:45;;;;;;;;;1.33;1.33;;;;;16.82;90.24;101027.09;5077192;27;45329;-71
2022/10/14 07:59:10;;;;;;;;;1.00;1.00;;;;;16.77;89.77;101023.91;5075435;28;45382;-71
2022/10/14 08:01:36;;;;;;;;;0.00;0.00;;;;;16.75;89.57;101025.00;5076879;27;45326;-71
2022/10/14 08:04:01;;;;;;;;;1.00;1.00;;;;;16.80;89.90;101037.16;5076913;28;46112;-71
2022/10/14 08:06:27;;;;;;;;;1.33;1.33;;;;;16.84;89.77;101045.81;5076938;27;45299;-71
2022/10/14 08:08:52;;;;;;;;;1.00;1.00;;;;;16.48;89.91;100981.34;5077152;27;45838;-71
2022/10/14 08:11:27;;;;;;;;;2.00;1.33;;;;;16.86;89.72;101049.25;5075782;28;45396;-71
2022/10/14 08:13:53;;;;;;;;;1.00;1.00;;;;;16.79;89.02;101045.38;5076786;27;46368;-70
2022/10/14 08:16:25;;;;;;;;;1.00;1.00;;;;;16.70;89.19;101036.16;5076051;28;45633;-70
2022/10/14 08:18:51;;;;;;;;;1.33;1.33;;;;;16.62;89.13;101026.00;5077472;28;45388;-71
2022/10/14 08:21:18;;;;;;;;;2.00;2.00;;;;;16.61;89.22;101026.13;5077184;28;45348;-71
2022/10/14 08:23:44;;;;;;;;;3.00;1.33;;;;;16.67;90.16;101022.97;5076721;27;46722;-71
2022/10/14 08:26:37;;;;;;;;;2.00;2.00;;;;;16.76;88.92;101038.38;5076706;28;45345;-70
2022/10/14 08:29:05;;;;;;;;;2.33;1.00;;;;;16.66;90.97;101032.00;5073996;28;45433;-70
2022/10/14 08:31:32;;;;;;;;;1.00;1.00;;;;;16.71;89.66;101050.47;5076705;28;45298;-71
2022/10/14 08:33:58;;;;;;;;;0.33;0.33;;;;;16.55;89.21;101038.25;5076490;27;45411;-71
2022/10/14 08:36:23;;;;;;;;;2.00;2.00;;;;;16.48;89.77;101037.91;5076193;28;45407;-71
2022/10/14 08:38:51;;;;;;;;;1.00;1.00;;;;;16.61;90.68;101053.06;5077004;28;45355;-72
2022/10/14 08:41:24;;;;;;;;;2.00;2.00;;;;;16.65;90.49;101047.34;5076590;28;45415;-71
2022/10/14 08:44:09;;;;;;;;;2.00;2.00;;;;;16.66;90.39;101045.47;5076355;28;47078;-71
2022/10/14 08:46:39;;;;;;;;;1.00;1.00;;;;;16.26;91.30;100971.47;5076642;28;45410;-70
2022/10/14 08:49:13;;;;;;;;;2.33;2.33;;;;;16.29;90.50;100983.78;5074963;28;45513;-70
2022/10/14 08:51:42;;;;;;;;;2.00;2.00;;;;;16.59;90.31;101030.81;5075590;28;45523;-70
2022/10/14 08:54:14;;;;;;;;;2.00;2.00;;;;;16.50;90.96;101004.63;5076568;28;45769;-71
2022/10/14 08:56:41;;;;;;;;;0.67;0.67;;;;;16.76;91.20;101049.16;5076410;28;45267;-71
2022/10/14 08:59:13;;;;;;;;;1.00;1.00;;;;;16.75;89.85;101042.06;5076174;28;45430;-70
2022/10/14 09:02:04;;;;;;;;;2.33;2.33;;;;;16.54;90.65;101006.06;5075281;28;45449;-71
2022/10/14 09:04:34;;;;;;;;;1.67;1.67;;;;;16.84;90.57;101048.50;5075263;27;46268;-71
2022/10/14 09:07:01;;;;;;;;;7.00;2.00;;;;;16.87;90.83;101042.91;5076200;28;45240;-70
2022/10/14 09:09:39;;;;;;;;;3.33;2.33;;;;;16.84;89.27;101028.81;5075958;27;45315;-71
2022/10/14 09:12:12;;;;;;;;;3.00;2.00;;;;;16.88;88.69;101038.34;5091085;27;45391;-71
2022/10/14 09:14:43;;;;;;;;;1.67;1.00;;;;;16.76;88.63;101015.97;5075591;28;45388;-71
2022/10/14 09:17:24;;;;;;;;;2.00;2.00;;;;;16.90;89.67;101029.19;5074497;28;45384;-71
2022/10/14 09:19:57;;;;;;;;;3.00;2.00;;;;;17.02;90.06;101038.13;5076368;28;45318;-71
2022/10/14 09:22:22;;;;;;;;;1.00;1.00;;;;;16.90;88.92;101012.19;5075691;27;45391;-71
2022/10/14 09:24:48;;;;;;;;;1.00;1.00;;;;;17.01;89.64;101019.41;5074190;28;46165;-71
2022/10/14 09:27:22;;;;;;;;;1.33;1.33;;;;;17.03;88.59;101023.66;5075819;28;45436;-71
2022/10/14 09:30:03;;;;;;;;;2.00;2.00;;;;;17.07;88.40;101025.13;5074659;28;45370;-71
2022/10/14 09:32:35;;;;;;;;;4.00;2.00;;;;;17.07;88.90;101021.56;5076052;28;45326;-71
2022/10/14 09:35:01;;;;;;;;;0.00;0.00;;;;;17.05;88.90;101018.16;5074875;28;46493;-71
2022/10/14 09:37:32;;;;;;;;;2.33;1.33;;;;;17.05;89.30;101015.47;5075059;27;45413;-71
2022/10/14 09:40:19;;;;;;;;;3.00;2.67;;;;;17.10;90.51;101005.13;5075444;27;45365;-71
2022/10/14 09:42:56;;;;;;;;;2.33;2.33;;;;;17.19;89.58;101017.00;5075160;27;45428;-71
2022/10/14 09:45:25;;;;;;;;;2.00;1.67;;;;;17.22;89.31;101008.66;5075401;27;46532;-71
2022/10/14 09:48:03;;;;;;;;;3.67;3.00;;;;;16.88;88.43;100954.84;5075492;27;45366;-71
2022/10/14 09:50:47;;;;;;;;;4.33;3.00;;;;;16.87;88.11;100953.13;5075496;27;45427;-71
2022/10/14 09:53:31;;;;;;;;;2.33;2.33;;;;;17.10;88.63;100997.91;5074606;28;45543;-71
2022/10/14 09:56:02;;;;;;;;;1.00;1.00;;;;;17.20;88.06;101007.94;5073624;28;47403;-71
2022/10/14 09:58:52;;;;;;;;;3.00;3.00;;;;;17.21;88.26;101015.03;5075472;27;45442;-71
2022/10/14 10:01:20;;;;;;;;;2.67;2.67;;;;;16.82;88.28;100970.53;5075549;27;45436;-72
2022/10/14 10:03:47;;;;;;;;;3.67;2.67;;;;;17.16;88.78;101020.81;5074830;27;45324;-71
2022/10/14 10:06:17;;;;;;;;;3.33;3.00;;;;;17.17;89.10;101013.56;5074939;28;45428;-71
2022/10/14 10:08:51;;;;;;;;;2.00;1.00;;;;;17.28;88.34;101011.69;5075056;27;45350;-72
2022/10/14 10:11:27;;;;;;;;;1.67;1.67;;;;;17.33;87.52;101014.03;5075038;27;45509;-72
2022/10/14 10:13:53;;;;;;;;;1.67;1.67;;;;;17.28;87.46;101010.84;5075162;28;45401;-71
2022/10/14 10:16:25;;;;;;;;;1.33;1.33;;;;;17.29;87.07;101013.41;5071001;27;45343;-67
2022/10/14 10:18:54;;;;;;;;;1.00;1.00;;;;;17.31;87.21;101002.50;5074647;28;45405;-68
2022/10/14 10:21:28;;;;;;;;;2.00;0.33;;;;;17.24;86.85;100995.91;5072942;28;45437;-67
2022/10/14 10:24:02;;;;;;;;;0.67;0.67;;;;;17.20;87.98;100972.91;5073441;28;45449;-67
2022/10/14 10:26:31;;;;;;;;;2.33;1.67;;;;;17.45;87.82;100985.16;5073510;28;45494;-68
2022/10/14 10:29:01;;;;;;;;;2.00;1.00;;;;;17.55;86.97;100982.53;5074879;27;45388;-68
2022/10/14 10:31:49;;;;;;;;;1.33;1.33;;;;;17.70;86.49;100992.00;5074704;27;45388;-67
2022/10/14 10:34:43;;;;;;;;;1.33;1.33;;;;;17.73;85.18;100978.25;5073277;28;45357;-67
2022/10/14 10:37:17;;;;;;;;;2.00;2.00;;;;;17.87;85.97;100989.69;5074306;27;45416;-70
2022/10/14 10:40:05;;;;;;;;;1.67;1.67;;;;;17.99;84.74;100988.66;5074426;27;45403;-70
2022/10/14 10:42:54;;;;;;;;;2.00;2.00;;;;;17.94;83.81;100947.75;5074312;28;45384;-70
2022/10/14 10:45:35;;;;;;;;;2.00;2.00;;;;;18.12;80.89;100974.97;5072998;28;45440;-70
2022/10/14 10:48:19;;;;;;;;;1.00;1.00;;;;;18.13;82.30;100972.13;5074727;27;46661;-71
2022/10/14 10:51:26;;;;;;;;;1.67;1.67;;;;;18.16;81.06;100971.84;5074302;27;45304;-70
2022/10/14 10:54:16;;;;;;;;;1.67;0.00;;;;;17.56;80.58;100857.47;4991091;28;45477;-70
2022/10/14 10:56:51;;;;;;;;;0.00;0.00;;;;;18.25;80.15;100947.75;4991601;28;45424;-70
2022/10/14 10:59:29;;;;;;;;;0.00;0.00;;;;;18.25;79.16;100943.19;4991610;28;46198;-70
2022/10/14 11:02:18;;;;;;;;;0.00;0.00;;;;;18.30;78.56;100950.88;4991453;28;45600;-70
2022/10/14 11:04:59;;;;;;;;;1.00;0.00;;;;;18.36;78.80;100955.75;4991619;28;45395;-70
2022/10/14 11:14:19;;;;;;;;;0.67;0.67;;;;;18.24;77.57;100951.44;4991660;28;45351;-70
2022/10/14 11:17:12;;;;;;;;;0.00;0.00;;;;;18.20;75.90;100947.31;4984444;28;45504;-70
2022/10/14 11:19:38;;;;;;;;;0.00;0.00;;;;;18.12;76.84;100938.00;4991708;28;45404;-69
2022/10/14 11:22:22;;;;;;;;;0.00;0.00;;;;;18.07;76.03;100932.19;4991398;28;47300;-69
2022/10/14 11:25:15;;;;;;;;;0.00;0.00;;;;;17.85;77.14;100883.75;4991740;28;45745;-69
2022/10/14 11:28:06;;;;;;;;;0.67;0.00;;;;;18.00;76.95;100917.50;4992818;28;45442;-71
2022/10/14 11:30:43;;;;;;;;;0.00;0.00;;;;;17.88;77.96;100918.56;5052211;28;45378;-70
2022/10/14 11:33:50;;;;;;;;;0.33;0.33;;;;;17.87;80.03;100909.63;5055377;28;46180;-72
2022/10/14 11:36:18;;;;;;;;;0.00;0.00;;;;;17.95;80.67;100909.81;5057146;28;45406;-70
2022/10/14 11:39:01;;;;;;;;;0.00;0.00;;;;;17.85;80.16;100892.69;5057362;28;45378;-71
2022/10/14 11:41:37;;;;;;;;;1.00;0.00;;;;;17.02;80.62;100760.56;5057386;28;45380;-70